Nearby METAR Reports

 

KCLM - Port Angeles, Washington, USA
Distance from station: W 17mi, 27km
Updated: Sun, 19-Feb-2017 5:53am PST
Overcast
Overcast
 Wind from W
Wind: W 5 mph , 7 km/h
Temperature: 39°F , 4°C
Wind Chill: 35°F , 2°C
Dew Point: 39°F , 4°C
Humidity: 100%
Barometer: 29.34 inHg , 993.6 hPa
Clouds: Overcast
Visibility: 10 miles , 16 km
Cloud details: Mostly cloudy 800 ft
Overcast 1400 ft
2017/02/19 13:53 KCLM 191353Z AUTO 26004KT 10SM BKN008 OVC014 04/04 A2934 RMK AO2 SLP936 T00390039
CWQK - Race Rocks Autob, British Columbia, Canada
Distance from station: NW 23mi, 36km
Updated: Sun, 19-Feb-2017 6:00am PST

 Wind from N
Wind: N 18 mph , 30 km/h
Temperature: 43°F , 6°C
Wind Chill: 35°F , 2°C
Dew Point: 39°F , 4°C
Humidity: 87%
2017/02/19 14:00 CWQK 191400Z AUTO 01016KT 06/04 RMK AO1 PK WND 01019/1302 SLP933 T00610044 55009
 
KNUW - Whidbey Is. Nas, Washington, USA
Distance from station: NE 28mi, 45km
Updated: Sun, 19-Feb-2017 5:56am PST
Mostly cloudy
Mostly cloudy
 Wind from ESE
Wind: ESE 9 mph , 15 km/h
Temperature: 43°F , 6°C
Wind Chill: 38°F , 3°C
Dew Point: 37°F , 3°C
Humidity: 81%
Barometer: 29.42 inHg , 996.3 hPa
Clouds: Mostly cloudy
Visibility: 10 miles , 16 km
Cloud details: Partly cloudy 4000 ft
Mostly cloudy 11000 ft
2017/02/19 13:56 KNUW 191356Z 12008KT 10SM SCT040 BKN110 06/03 A2942 RMK AO2 SLP960 T00610028 $
KFHR - Friday Harbor, Washington, USA
Distance from station: N 29mi, 46km
Updated: Sun, 19-Feb-2017 5:53am PST
Overcast
Overcast
 Wind from SE
Wind: SE 12 mph , 19 km/h
Temperature: 45°F , 7°C
Wind Chill: 39°F , 4°C
Dew Point: 37°F , 3°C
Humidity: 76%
Barometer: 29.38 inHg , 994.9 hPa
Clouds: Overcast
Visibility: 10 miles , 16 km
Cloud details: Mostly cloudy 1900 ft
Overcast 8000 ft
2017/02/19 13:53 KFHR 191353Z AUTO 13010KT 10SM BKN019 OVC080 07/03 A2938 RMK AO2 SLP948 T00670033
 
KBVS - Burlington/Mt V, Washington, USA
Distance from station: NE 41mi, 66km
Updated: Sun, 19-Feb-2017 5:55am PST
Overcast
Overcast
 Wind from ENE
Wind: ENE 8 mph , 13 km/h
Temperature: 41°F , 5°C
Wind Chill: 36°F , 2°C
Dew Point: 37°F , 3°C
Humidity: 87%
Barometer: 29.39 inHg , 995.3 hPa
Clouds: Overcast
Visibility: 10 miles , 16 km
Cloud details: Partly cloudy 4200 ft
Mostly cloudy 5500 ft
Overcast 6500 ft
2017/02/19 13:55 KBVS 191355Z AUTO 07007KT 10SM SCT042 BKN055 OVC065 05/03 A2939 RMK A01
KPAE - Everett, Washington, USA
Distance from station: ESE 42mi, 67km
Updated: Sun, 19-Feb-2017 5:53am PST
Overcast
Overcast
 Wind from calm
Wind: Calm
Temperature: 39°F , 4°C
Dew Point: 37°F , 3°C
Humidity: 93%
Barometer: 29.38 inHg , 994.9 hPa
Clouds: Overcast
Visibility: 10 miles , 16 km
Cloud details: Mostly cloudy 4100 ft
Overcast 5000 ft
2017/02/19 13:53 KPAE 191353Z AUTO 00000KT 10SM BKN041 OVC050 04/03 A2938 RMK AO2 SLP951 T00440033
 
KORS - Eastsound/Orcas, Washington, USA
Distance from station: NNE 42mi, 68km
Updated: Sun, 19-Feb-2017 5:55am PST
Clear
Clear
 Wind from calm
Wind: Calm
Temperature: 45°F , 7°C
Dew Point: 37°F , 3°C
Humidity: 76%
Barometer: 29.36 inHg , 994.2 hPa
Clouds: Clear
Visibility: 10 miles , 16 km
2017/02/19 13:55 KORS 191355Z AUTO 00000KT 10SM CLR 07/03 A2936 RMK AO2
KAWO - Arlington Muni, Washington, USA
Distance from station: E 45mi, 72km
Updated: Sun, 19-Feb-2017 5:55am PST
Overcast
Overcast
 Wind from calm
Wind: Calm
Temperature: 41°F , 5°C
Dew Point: 32°F , 0°C
Humidity: 70%
Barometer: 29.41 inHg , 995.9 hPa
Clouds: Overcast
Visibility: 10 miles , 16 km
Cloud details: Overcast 4100 ft
2017/02/19 13:55 KAWO 191355Z AUTO 00000KT 10SM OVC041 05/00 A2941 RMK AO1
 
KPWT - Bremerton Ntnl, Washington, USA
Distance from station: SSE 46mi, 73km
Updated: Sun, 19-Feb-2017 5:55am PST
Overcast
Overcast
 Wind from calm
Wind: Calm
Temperature: 39°F , 4°C
Dew Point: 37°F , 3°C
Humidity: 93%
Barometer: 29.41 inHg , 995.9 hPa
Clouds: Overcast
Visibility: 10 miles , 16 km
Cloud details: Few Clouds 1000 ft
Overcast 3100 ft
2017/02/19 13:55 KPWT 191355Z AUTO 00000KT 10SM FEW010 OVC031 04/03 A2941 RMK AO1 P0001